Avon, Iowa
Current Conditions -  °F | °C
As of 8:54 AM on Monday 22 Dec 2014 (Local Time) from KDSM Reporting Station
Light Snow Light Snow  
Wind Chill: 33°   Ceiling: 800
Heat Index: 40°   Visibility: 3mi
Dew Point: 36°   Wind: 12mph
Humidity: 86%   Direction: 150°SSE
Pressure: 29.62"   Gusts: NA
Location:  41.4707°N, 93.4797°W
Report Text: KDSM 221454Z 15010KT 3SM -RASN BR OVC008 04/02 A2962 RMK AO2 RAB04SNB53 CIG 006V013 SLP036 P0002 60002 T00440022 58011
Loading
Personal Weather Stations






























Interactive Weather Map New forecast layout! Learn more

10-Day Weather Forecast

Advertisements
Track Severe Weather on mobile